Tutti
Cessnock Airport (Cessnock, New South Wales) CES Meteo
|
Cessnock, New South Wales (CES / YCNK)
Cielo sereno
Venti leggeri |
|
17 °C |
There is no TAF data available at CES. Showing TAF data for YMND (11 mi NE).
Previsione area Terminal MTL (nessun dato per CES)
| Here is the undecoded forecast: 2026/05/04 01:12 YMND 040112Z 0402/0414 29008KT 9999 -RA NSC FM040900 30004KT 9999 -RA FEW015 SCT045 INTER 0404/0414 34020G35KT 4000 SHRA SCT015 FEW050TCU PROB30 INTER 0406/0414 VRB25G40KT 2000 TSRA BKN015 SCT050CB RMK T 26 24 20 18 Q 1016 1014 1014 1016 |
Storico METAR CES recente
| Date | Time (AEST) | Flight Rules | Wind Dir. | Speed | Type | Height AGL (ft) | Visibility | Temp (°C) | Temp (°F) | Dew Point (°C) | Dew Point (°F) | Rel. Humid. | Pressure | Density Altitude | Remarks |
|---|---|---|---|---|---|---|---|---|---|---|---|---|---|---|---|
| 05-mag | 03:00 | n/a | 330° | 4 kt | Missing | 17° | 62° | 16° | 60° | 94% | 1016 mb | 369 ft | |||
| 05-mag | 02:00 | n/a | 340° | 6 kt | Missing | 17° | 62° | 16° | 60° | 94% | 1016 mb | 369 ft | |||
| 05-mag | 01:00 | n/a | Calm | Missing | 17° | 62° | 16° | 60° | 94% | 1016 mb | 369 ft | ||||
| 05-mag | 00:00 | n/a | 230° | 1 kt | Missing | 16° | 60° | 16° | 60° | 100% | 1016 mb | 249 ft | |||
| 04-mag | 23:00 | n/a | 290° | 3 kt | Missing | 16° | 60° | 16° | 60° | 100% | 1016 mb | 249 ft | |||
| 04-mag | 22:00 | n/a | 30° | 4 kt | Missing | 17° | 62° | 16° | 60° | 94% | 1016 mb | 369 ft | |||
| 04-mag | 21:00 | n/a | 10° | 2 kt | Missing | 17° | 62° | 16° | 60° | 94% | 1016 mb | 369 ft | |||
| 04-mag | 20:00 | n/a | 230° | 1 kt | Missing | 17° | 62° | 16° | 60° | 94% | 1016 mb | 369 ft | |||
| 04-mag | 19:00 | n/a | 340° | 7 kt | Missing | 19° | 66° | 15° | 59° | 78% | 1016 mb | 609 ft | |||
| 04-mag | 18:00 | n/a | 350° | 7 kt | Missing | 20° | 68° | 15° | 59° | 73% | 1015 mb | 758 ft | |||
| 04-mag | 17:00 | n/a | 350° | 6 kt | Missing | 21° | 69° | 15° | 59° | 69% | 1015 mb | 878 ft | |||
| 04-mag | 16:00 | n/a | 310° | 5 kt | Missing | 22° | 71° | 14° | 57° | 60% | 1015 mb | 998 ft | |||
| 04-mag | 15:00 | n/a | 340° | 2 kt | Missing | 23° | 73° | 14° | 57° | 57% | 1015 mb | 1.118 ft | |||
| 04-mag | 14:00 | n/a | 320° | 5 kt | Missing | 23° | 73° | 13° | 55° | 53% | 1015 mb | 1.118 ft | |||
| 04-mag | 13:00 | n/a | 300° | 4 kt | Missing | 24° | 75° | 13° | 55° | 50% | 1016 mb | 1.209 ft | |||
| 04-mag | 12:00 | n/a | 290° | 9 kt | Missing | 24° | 75° | 13° | 55° | 50% | 1017 mb | 1.179 ft | |||
| 04-mag | 11:00 | n/a | 320° | 5 kt | Missing | 25° | 77° | 13° | 55° | 47% | 1017 mb | 1.299 ft | |||
| 04-mag | 10:00 | n/a | 30° | 4 kt | Missing | 23° | 73° | 15° | 59° | 61% | 1017 mb | 1.059 ft | |||
| 04-mag | 09:00 | n/a | 90° | 4 kt | Missing | 19° | 66° | 15° | 59° | 78% | 1018 mb | 549 ft | |||
| 04-mag | 08:00 | n/a | Calm | Missing | 14° | 57° | 13° | 55° | 94% | 1017 mb | -21 ft | ||||
| 04-mag | 07:00 | n/a | Calm | Missing | 10° | 50° | 9° | 48° | 93% | 1017 mb | -501 ft | ||||
| 04-mag | 06:00 | n/a | Calm | Missing | 9° | 48° | 9° | 48° | 100% | 1016 mb | -591 ft | ||||
| 04-mag | 05:00 | n/a | Calm | Missing | 10° | 50° | 10° | 50° | 100% | 1016 mb | -471 ft | ||||
| 04-mag | 04:00 | n/a | Calm | Missing | 10° | 50° | 10° | 50° | 100% | 1016 mb | -471 ft |
Accedi
| Il tuo browser non è supportato. fai l'upgrade del tuo browser |
